Terminal Aerodrome Forecast
Issued by NWS Twin Cities, MN

Home | Current Version | Previous Version | Text Only | Print | Product List | Glossary On
Versions: 1 2 3 4 5 6 7 8 9 10 11 12 13
052
FTUS43 KMPX 161120
TAFSTC
TAF
KSTC 161120Z 1612/1712 15003KT 5SM BR SCT300
     FM161900 VRB03KT P6SM BKN020
     FM170800 33003KT 1/2SM FG BKN004=

USA.gov is the U.S. government's official web portal to all federal, state and local government web resources and services.